Schedule Details

Flight Number: CPX726
Departure: El Nuevo Dorado International Airport (SKBO) at 0510 UTC
Arrival: Miami International Airport (KMIA) at 0815 UTC
Route: UCA UA301 URSUS FLIPR5


Current Weather Information
SKBO 192300Z 28006KT 9999 VCSH SCT017 SCT080 16/12 A3027 RMK VCSH N
KMIA 192253Z 10011KT 10SM SCT027 26/21 A3013 RMK AO2 SLP202 T02560206